sensor_id;sensor_type;location;lat;lon;timestamp;temperature;humidity
65460;DHT22;52058;49.822;6.754;2023-11-21T00:00:40;10.08;99.99
65460;DHT22;52058;49.822;6.754;2023-11-21T00:03:08;10.09;99.94
65460;DHT22;52058;49.822;6.754;2023-11-21T00:05:36;10.09;99.96
65460;DHT22;52058;49.822;6.754;2023-11-21T00:08:03;10.10;99.99
65460;DHT22;52058;49.822;6.754;2023-11-21T00:10:30;10.13;99.81
65460;DHT22;52058;49.822;6.754;2023-11-21T00:12:57;10.13;99.68
65460;DHT22;52058;49.822;6.754;2023-11-21T00:15:23;10.16;99.63
65460;DHT22;52058;49.822;6.754;2023-11-21T00:17:50;10.16;99.71
65460;DHT22;52058;49.822;6.754;2023-11-21T00:20:18;10.19;99.72
65460;DHT22;52058;49.822;6.754;2023-11-21T00:22:45;10.16;99.65
65460;DHT22;52058;49.822;6.754;2023-11-21T00:25:12;10.16;99.39
65460;DHT22;52058;49.822;6.754;2023-11-21T00:27:41;10.16;99.59
65460;DHT22;52058;49.822;6.754;2023-11-21T00:30:08;10.20;99.69
65460;DHT22;52058;49.822;6.754;2023-11-21T00:32:35;10.19;99.80
65460;DHT22;52058;49.822;6.754;2023-11-21T00:35:02;10.20;99.94
65460;DHT22;52058;49.822;6.754;2023-11-21T00:37:30;10.17;99.83
65460;DHT22;52058;49.822;6.754;2023-11-21T00:39:57;10.16;99.82
65460;DHT22;52058;49.822;6.754;2023-11-21T00:42:24;10.17;99.66
65460;DHT22;52058;49.822;6.754;2023-11-21T00:44:50;10.21;99.71
65460;DHT22;52058;49.822;6.754;2023-11-21T00:47:17;10.16;99.88
65460;DHT22;52058;49.822;6.754;2023-11-21T00:49:43;10.13;99.87
65460;DHT22;52058;49.822;6.754;2023-11-21T00:52:10;10.10;99.99
65460;DHT22;52058;49.822;6.754;2023-11-21T00:54:38;10.06;99.99
65460;DHT22;52058;49.822;6.754;2023-11-21T00:57:05;10.10;99.99
65460;DHT22;52058;49.822;6.754;2023-11-21T00:59:31;10.12;99.99
65460;DHT22;52058;49.822;6.754;2023-11-21T01:01:58;10.13;99.99
65460;DHT22;52058;49.822;6.754;2023-11-21T01:04:27;10.10;99.99
65460;DHT22;52058;49.822;6.754;2023-11-21T01:06:53;10.10;99.99
65460;DHT22;52058;49.822;6.754;2023-11-21T01:09:20;10.13;99.99
65460;DHT22;52058;49.822;6.754;2023-11-21T01:11:48;10.14;99.99
65460;DHT22;52058;49.822;6.754;2023-11-21T01:14:14;10.17;99.99
65460;DHT22;52058;49.822;6.754;2023-11-21T01:16:43;10.13;99.99
65460;DHT22;52058;49.822;6.754;2023-11-21T01:19:09;10.12;99.99
65460;DHT22;52058;49.822;6.754;2023-11-21T01:21:36;10.10;99.99
65460;DHT22;52058;49.822;6.754;2023-11-21T01:24:03;10.10;99.99
65460;DHT22;52058;49.822;6.754;2023-11-21T01:26:32;10.08;99.99
65460;DHT22;52058;49.822;6.754;2023-11-21T01:29:00;10.10;99.99
65460;DHT22;52058;49.822;6.754;2023-11-21T01:31:27;10.09;99.99
65460;DHT22;52058;49.822;6.754;2023-11-21T01:33:55;10.10;99.99
65460;DHT22;52058;49.822;6.754;2023-11-21T01:36:21;10.08;99.99
65460;DHT22;52058;49.822;6.754;2023-11-21T01:38:48;10.08;99.99
65460;DHT22;52058;49.822;6.754;2023-11-21T01:41:14;10.09;99.99
65460;DHT22;52058;49.822;6.754;2023-11-21T01:43:41;10.12;99.99
65460;DHT22;52058;49.822;6.754;2023-11-21T01:46:09;10.08;99.99
65460;DHT22;52058;49.822;6.754;2023-11-21T01:48:36;10.10;99.99
65460;DHT22;52058;49.822;6.754;2023-11-21T01:51:04;10.10;99.99
65460;DHT22;52058;49.822;6.754;2023-11-21T01:53:30;10.09;99.99
65460;DHT22;52058;49.822;6.754;2023-11-21T01:55:57;10.08;99.99
65460;DHT22;52058;49.822;6.754;2023-11-21T01:58:25;10.06;99.99
65460;DHT22;52058;49.822;6.754;2023-11-21T02:00:52;10.00;99.99
65460;DHT22;52058;49.822;6.754;2023-11-21T02:03:21;9.96;99.99
65460;DHT22;52058;49.822;6.754;2023-11-21T02:05:48;9.98;99.99
65460;DHT22;52058;49.822;6.754;2023-11-21T02:08:14;9.96;99.99
65460;DHT22;52058;49.822;6.754;2023-11-21T02:10:41;9.93;99.99
65460;DHT22;52058;49.822;6.754;2023-11-21T02:13:07;9.89;99.99
65460;DHT22;52058;49.822;6.754;2023-11-21T02:15:34;9.85;99.99
65460;DHT22;52058;49.822;6.754;2023-11-21T02:18:00;9.83;99.99
65460;DHT22;52058;49.822;6.754;2023-11-21T02:20:29;9.82;99.99
65460;DHT22;52058;49.822;6.754;2023-11-21T02:22:58;9.82;99.99
65460;DHT22;52058;49.822;6.754;2023-11-21T02:25:25;9.79;99.99
65460;DHT22;52058;49.822;6.754;2023-11-21T02:27:52;9.79;99.99
65460;DHT22;52058;49.822;6.754;2023-11-21T02:30:20;9.79;99.99
65460;DHT22;52058;49.822;6.754;2023-11-21T02:32:47;9.77;99.99
65460;DHT22;52058;49.822;6.754;2023-11-21T02:35:13;9.78;99.99
65460;DHT22;52058;49.822;6.754;2023-11-21T02:37:41;9.79;99.99
65460;DHT22;52058;49.822;6.754;2023-11-21T02:40:10;9.78;99.99
65460;DHT22;52058;49.822;6.754;2023-11-21T02:42:39;9.77;99.99
65460;DHT22;52058;49.822;6.754;2023-11-21T02:45:06;9.79;99.99
65460;DHT22;52058;49.822;6.754;2023-11-21T02:47:33;9.79;99.99
65460;DHT22;52058;49.822;6.754;2023-11-21T02:50:00;9.81;99.99
65460;DHT22;52058;49.822;6.754;2023-11-21T02:52:26;9.81;99.99
65460;DHT22;52058;49.822;6.754;2023-11-21T02:54:53;9.78;99.99
65460;DHT22;52058;49.822;6.754;2023-11-21T02:57:21;9.81;99.99
65460;DHT22;52058;49.822;6.754;2023-11-21T02:59:48;9.81;99.99
65460;DHT22;52058;49.822;6.754;2023-11-21T03:02:14;9.81;99.99
65460;DHT22;52058;49.822;6.754;2023-11-21T03:04:41;9.81;99.99
65460;DHT22;52058;49.822;6.754;2023-11-21T03:07:09;9.82;99.99
65460;DHT22;52058;49.822;6.754;2023-11-21T03:09:35;9.81;99.99
65460;DHT22;52058;49.822;6.754;2023-11-21T03:12:02;9.82;99.99
65460;DHT22;52058;49.822;6.754;2023-11-21T03:14:30;9.82;99.99
65460;DHT22;52058;49.822;6.754;2023-11-21T03:16:57;9.81;99.77
65460;DHT22;52058;49.822;6.754;2023-11-21T03:19:23;9.81;99.60
65460;DHT22;52058;49.822;6.754;2023-11-21T03:21:50;9.81;99.81
65460;DHT22;52058;49.822;6.754;2023-11-21T03:24:18;9.78;99.82
65460;DHT22;52058;49.822;6.754;2023-11-21T03:26:45;9.81;99.62
65460;DHT22;52058;49.822;6.754;2023-11-21T03:29:12;9.78;99.65
65460;DHT22;52058;49.822;6.754;2023-11-21T03:31:40;9.75;98.91
65460;DHT22;52058;49.822;6.754;2023-11-21T03:34:09;9.74;97.54
65460;DHT22;52058;49.822;6.754;2023-11-21T03:36:36;9.74;97.47
65460;DHT22;52058;49.822;6.754;2023-11-21T03:39:03;9.77;97.57
65460;DHT22;52058;49.822;6.754;2023-11-21T03:41:30;9.72;97.80
65460;DHT22;52058;49.822;6.754;2023-11-21T03:43:57;9.74;96.60
65460;DHT22;52058;49.822;6.754;2023-11-21T03:46:23;9.72;96.78
65460;DHT22;52058;49.822;6.754;2023-11-21T03:48:52;9.69;95.69
65460;DHT22;52058;49.822;6.754;2023-11-21T03:51:20;9.75;94.71
65460;DHT22;52058;49.822;6.754;2023-11-21T03:53:48;9.74;94.18
65460;DHT22;52058;49.822;6.754;2023-11-21T03:56:14;9.71;94.66
65460;DHT22;52058;49.822;6.754;2023-11-21T03:58:41;9.68;94.83
65460;DHT22;52058;49.822;6.754;2023-11-21T04:01:08;9.67;95.05
65460;DHT22;52058;49.822;6.754;2023-11-21T04:03:35;9.71;94.82
65460;DHT22;52058;49.822;6.754;2023-11-21T04:06:03;9.68;94.91
65460;DHT22;52058;49.822;6.754;2023-11-21T04:08:31;9.67;94.83
65460;DHT22;52058;49.822;6.754;2023-11-21T04:10:59;9.57;94.44
65460;DHT22;52058;49.822;6.754;2023-11-21T04:13:26;9.62;94.24
65460;DHT22;52058;49.822;6.754;2023-11-21T04:15:53;9.59;94.74
65460;DHT22;52058;49.822;6.754;2023-11-21T04:18:19;9.62;94.55
65460;DHT22;52058;49.822;6.754;2023-11-21T04:20:46;9.61;94.58
65460;DHT22;52058;49.822;6.754;2023-11-21T04:23:14;9.61;94.72
65460;DHT22;52058;49.822;6.754;2023-11-21T04:25:41;9.59;94.87
65460;DHT22;52058;49.822;6.754;2023-11-21T04:28:07;9.58;95.83
65460;DHT22;52058;49.822;6.754;2023-11-21T04:30:34;9.58;96.14
65460;DHT22;52058;49.822;6.754;2023-11-21T04:33:00;9.54;96.52
65460;DHT22;52058;49.822;6.754;2023-11-21T04:35:28;9.54;94.98
65460;DHT22;52058;49.822;6.754;2023-11-21T04:37:54;9.54;95.99
65460;DHT22;52058;49.822;6.754;2023-11-21T04:40:23;9.52;96.26
65460;DHT22;52058;49.822;6.754;2023-11-21T04:42:52;9.52;96.65
65460;DHT22;52058;49.822;6.754;2023-11-21T04:45:18;9.50;96.72
65460;DHT22;52058;49.822;6.754;2023-11-21T04:47:45;9.51;95.92
65460;DHT22;52058;49.822;6.754;2023-11-21T04:50:12;9.51;96.00
65460;DHT22;52058;49.822;6.754;2023-11-21T04:52:38;9.50;97.16
65460;DHT22;52058;49.822;6.754;2023-11-21T04:55:06;9.45;96.45
65460;DHT22;52058;49.822;6.754;2023-11-21T04:57:36;9.48;96.61
65460;DHT22;52058;49.822;6.754;2023-11-21T05:00:04;9.47;96.97
65460;DHT22;52058;49.822;6.754;2023-11-21T05:02:31;9.51;97.12
65460;DHT22;52058;49.822;6.754;2023-11-21T05:04:56;9.47;97.03
65460;DHT22;52058;49.822;6.754;2023-11-21T05:07:23;9.45;97.41
65460;DHT22;52058;49.822;6.754;2023-11-21T05:09:53;9.45;97.62
65460;DHT22;52058;49.822;6.754;2023-11-21T05:12:21;9.42;97.72
65460;DHT22;52058;49.822;6.754;2023-11-21T05:14:50;9.42;97.85
65460;DHT22;52058;49.822;6.754;2023-11-21T05:17:16;9.42;98.11
65460;DHT22;52058;49.822;6.754;2023-11-21T05:19:43;9.38;97.78
65460;DHT22;52058;49.822;6.754;2023-11-21T05:22:10;9.38;97.92
65460;DHT22;52058;49.822;6.754;2023-11-21T05:24:37;9.38;97.67
65460;DHT22;52058;49.822;6.754;2023-11-21T05:27:04;9.41;97.43
65460;DHT22;52058;49.822;6.754;2023-11-21T05:29:31;9.40;97.63
65460;DHT22;52058;49.822;6.754;2023-11-21T05:31:59;9.40;97.68
65460;DHT22;52058;49.822;6.754;2023-11-21T05:34:25;9.37;97.81
65460;DHT22;52058;49.822;6.754;2023-11-21T05:36:52;9.40;97.76
65460;DHT22;52058;49.822;6.754;2023-11-21T05:39:19;9.38;97.70
65460;DHT22;52058;49.822;6.754;2023-11-21T05:41:46;9.42;97.59
65460;DHT22;52058;49.822;6.754;2023-11-21T05:44:12;9.41;97.78
65460;DHT22;52058;49.822;6.754;2023-11-21T05:46:40;9.44;97.86
65460;DHT22;52058;49.822;6.754;2023-11-21T05:49:09;9.41;98.12
65460;DHT22;52058;49.822;6.754;2023-11-21T05:51:36;9.42;98.00
65460;DHT22;52058;49.822;6.754;2023-11-21T05:54:03;9.41;97.98
65460;DHT22;52058;49.822;6.754;2023-11-21T05:56:30;9.41;98.19
65460;DHT22;52058;49.822;6.754;2023-11-21T05:58:57;9.40;98.14
65460;DHT22;52058;49.822;6.754;2023-11-21T06:01:23;9.41;98.08
65460;DHT22;52058;49.822;6.754;2023-11-21T06:03:50;9.35;98.25
65460;DHT22;52058;49.822;6.754;2023-11-21T06:06:18;9.34;98.24
65460;DHT22;52058;49.822;6.754;2023-11-21T06:08:44;9.34;98.11
65460;DHT22;52058;49.822;6.754;2023-11-21T06:11:11;9.34;98.08
65460;DHT22;52058;49.822;6.754;2023-11-21T06:13:37;9.35;98.12
65460;DHT22;52058;49.822;6.754;2023-11-21T06:16:05;9.31;98.30
65460;DHT22;52058;49.822;6.754;2023-11-21T06:18:31;9.28;98.46
65460;DHT22;52058;49.822;6.754;2023-11-21T06:20:58;9.28;98.46
65460;DHT22;52058;49.822;6.754;2023-11-21T06:23:27;9.23;98.70
65460;DHT22;52058;49.822;6.754;2023-11-21T06:25:53;9.24;98.77
65460;DHT22;52058;49.822;6.754;2023-11-21T06:28:20;9.23;98.72
65460;DHT22;52058;49.822;6.754;2023-11-21T06:30:46;9.23;98.61
65460;DHT22;52058;49.822;6.754;2023-11-21T06:33:14;9.21;98.39
65460;DHT22;52058;49.822;6.754;2023-11-21T06:35:41;9.20;98.14
65460;DHT22;52058;49.822;6.754;2023-11-21T06:38:08;9.17;98.17
65460;DHT22;52058;49.822;6.754;2023-11-21T06:40:36;9.20;98.17
65460;DHT22;52058;49.822;6.754;2023-11-21T06:43:02;9.20;98.46
65460;DHT22;52058;49.822;6.754;2023-11-21T06:45:30;9.21;98.33
65460;DHT22;52058;49.822;6.754;2023-11-21T06:47:56;9.19;98.51
65460;DHT22;52058;49.822;6.754;2023-11-21T06:50:23;9.17;98.85
65460;DHT22;52058;49.822;6.754;2023-11-21T06:52:49;9.17;98.91
65460;DHT22;52058;49.822;6.754;2023-11-21T06:55:16;9.16;98.96
65460;DHT22;52058;49.822;6.754;2023-11-21T06:57:44;9.16;99.11
65460;DHT22;52058;49.822;6.754;2023-11-21T07:00:13;9.13;99.20
65460;DHT22;52058;49.822;6.754;2023-11-21T07:02:42;9.11;99.26
65460;DHT22;52058;49.822;6.754;2023-11-21T07:05:09;9.16;99.27
65460;DHT22;52058;49.822;6.754;2023-11-21T07:07:36;9.11;99.24
65460;DHT22;52058;49.822;6.754;2023-11-21T07:10:03;9.14;98.98
65460;DHT22;52058;49.822;6.754;2023-11-21T07:12:31;9.14;98.94
65460;DHT22;52058;49.822;6.754;2023-11-21T07:14:59;9.19;98.70
65460;DHT22;52058;49.822;6.754;2023-11-21T07:17:26;9.16;98.79
65460;DHT22;52058;49.822;6.754;2023-11-21T07:19:52;9.17;99.06
65460;DHT22;52058;49.822;6.754;2023-11-21T07:22:20;9.20;99.02
65460;DHT22;52058;49.822;6.754;2023-11-21T07:24:48;9.23;99.00
65460;DHT22;52058;49.822;6.754;2023-11-21T07:27:15;9.21;99.00
65460;DHT22;52058;49.822;6.754;2023-11-21T07:29:41;9.26;99.04
65460;DHT22;52058;49.822;6.754;2023-11-21T07:32:09;9.23;99.08
65460;DHT22;52058;49.822;6.754;2023-11-21T07:34:36;9.26;99.17
65460;DHT22;52058;49.822;6.754;2023-11-21T07:37:03;9.26;99.08
65460;DHT22;52058;49.822;6.754;2023-11-21T07:39:30;9.30;98.89
65460;DHT22;52058;49.822;6.754;2023-11-21T07:41:56;9.37;98.91
65460;DHT22;52058;49.822;6.754;2023-11-21T07:44:23;9.34;98.94
65460;DHT22;52058;49.822;6.754;2023-11-21T07:46:49;9.38;98.97
65460;DHT22;52058;49.822;6.754;2023-11-21T07:49:17;9.38;99.09
65460;DHT22;52058;49.822;6.754;2023-11-21T07:51:46;9.42;99.13
65460;DHT22;52058;49.822;6.754;2023-11-21T07:54:13;9.40;99.11
65460;DHT22;52058;49.822;6.754;2023-11-21T07:56:39;9.40;99.18
65460;DHT22;52058;49.822;6.754;2023-11-21T07:59:06;9.42;99.10
65460;DHT22;52058;49.822;6.754;2023-11-21T08:01:32;9.45;99.05
65460;DHT22;52058;49.822;6.754;2023-11-21T08:03:59;9.44;98.62
65460;DHT22;52058;49.822;6.754;2023-11-21T08:06:30;9.45;98.78
65460;DHT22;52058;49.822;6.754;2023-11-21T08:08:58;9.48;98.88
65460;DHT22;52058;49.822;6.754;2023-11-21T08:11:25;9.54;98.84
65460;DHT22;52058;49.822;6.754;2023-11-21T08:13:54;9.54;98.83
65460;DHT22;52058;49.822;6.754;2023-11-21T08:16:21;9.57;98.90
65460;DHT22;52058;49.822;6.754;2023-11-21T08:18:49;9.58;98.93
65460;DHT22;52058;49.822;6.754;2023-11-21T08:21:16;9.63;98.82
65460;DHT22;52058;49.822;6.754;2023-11-21T08:23:44;9.67;98.64
65460;DHT22;52058;49.822;6.754;2023-11-21T08:26:10;9.71;98.63
65460;DHT22;52058;49.822;6.754;2023-11-21T08:28:37;9.77;98.47
65460;DHT22;52058;49.822;6.754;2023-11-21T08:31:06;9.79;98.50
65460;DHT22;52058;49.822;6.754;2023-11-21T08:33:33;9.79;98.03
65460;DHT22;52058;49.822;6.754;2023-11-21T08:35:59;9.92;98.17
65460;DHT22;52058;49.822;6.754;2023-11-21T08:38:26;9.99;98.01
65460;DHT22;52058;49.822;6.754;2023-11-21T08:40:55;9.98;96.99
65460;DHT22;52058;49.822;6.754;2023-11-21T08:43:22;10.08;97.03
65460;DHT22;52058;49.822;6.754;2023-11-21T08:45:49;10.09;96.39
65460;DHT22;52058;49.822;6.754;2023-11-21T08:48:16;10.12;95.93
65460;DHT22;52058;49.822;6.754;2023-11-21T08:50:42;10.20;96.33
65460;DHT22;52058;49.822;6.754;2023-11-21T08:53:09;10.27;96.11
65460;DHT22;52058;49.822;6.754;2023-11-21T08:55:36;10.30;95.84
65460;DHT22;52058;49.822;6.754;2023-11-21T08:58:04;10.39;95.75
65460;DHT22;52058;49.822;6.754;2023-11-21T09:00:32;10.34;94.99
65460;DHT22;52058;49.822;6.754;2023-11-21T09:02:58;10.46;95.13
65460;DHT22;52058;49.822;6.754;2023-11-21T09:05:25;10.47;94.80
65460;DHT22;52058;49.822;6.754;2023-11-21T09:07:52;10.48;94.92
65460;DHT22;52058;49.822;6.754;2023-11-21T09:10:18;10.46;95.11
65460;DHT22;52058;49.822;6.754;2023-11-21T09:12:46;10.51;95.06
65460;DHT22;52058;49.822;6.754;2023-11-21T09:15:14;10.60;95.18
65460;DHT22;52058;49.822;6.754;2023-11-21T09:17:40;10.63;94.59
65460;DHT22;52058;49.822;6.754;2023-11-21T09:20:08;10.63;94.47
65460;DHT22;52058;49.822;6.754;2023-11-21T09:22:35;10.63;94.30
65460;DHT22;52058;49.822;6.754;2023-11-21T09:25:01;10.65;93.82
65460;DHT22;52058;49.822;6.754;2023-11-21T09:27:30;10.57;92.78
65460;DHT22;52058;49.822;6.754;2023-11-21T09:29:57;10.61;93.05
65460;DHT22;52058;49.822;6.754;2023-11-21T09:32:25;10.63;93.70
65460;DHT22;52058;49.822;6.754;2023-11-21T09:34:51;10.70;93.35
65460;DHT22;52058;49.822;6.754;2023-11-21T09:37:20;10.68;93.93
65460;DHT22;52058;49.822;6.754;2023-11-21T09:39:47;10.77;94.05
65460;DHT22;52058;49.822;6.754;2023-11-21T09:42:18;10.79;92.59
65460;DHT22;52058;49.822;6.754;2023-11-21T09:44:53;10.84;92.94
65460;DHT22;52058;49.822;6.754;2023-11-21T09:47:22;10.95;93.84
65460;DHT22;52058;49.822;6.754;2023-11-21T09:49:52;10.88;92.43
65460;DHT22;52058;49.822;6.754;2023-11-21T09:52:25;10.92;92.32
65460;DHT22;52058;49.822;6.754;2023-11-21T09:54:52;10.95;92.24
65460;DHT22;52058;49.822;6.754;2023-11-21T09:57:19;10.99;92.07
65460;DHT22;52058;49.822;6.754;2023-11-21T09:59:50;11.09;91.30
65460;DHT22;52058;49.822;6.754;2023-11-21T10:02:17;11.18;90.67
65460;DHT22;52058;49.822;6.754;2023-11-21T10:04:46;11.28;90.51
65460;DHT22;52058;49.822;6.754;2023-11-21T10:07:17;11.30;90.49
65460;DHT22;52058;49.822;6.754;2023-11-21T10:09:45;11.37;90.67
65460;DHT22;52058;49.822;6.754;2023-11-21T10:12:15;11.46;90.31
65460;DHT22;52058;49.822;6.754;2023-11-21T10:14:42;11.50;90.10
65460;DHT22;52058;49.822;6.754;2023-11-21T10:17:10;11.59;90.64
65460;DHT22;52058;49.822;6.754;2023-11-21T10:19:39;11.66;91.04
65460;DHT22;52058;49.822;6.754;2023-11-21T10:22:06;11.77;90.48
65460;DHT22;52058;49.822;6.754;2023-11-21T10:24:35;11.76;89.43
65460;DHT22;52058;49.822;6.754;2023-11-21T10:27:03;11.84;88.87
65460;DHT22;52058;49.822;6.754;2023-11-21T10:29:30;11.90;88.48
65460;DHT22;52058;49.822;6.754;2023-11-21T10:32:01;11.97;87.93
65460;DHT22;52058;49.822;6.754;2023-11-21T10:34:28;12.04;87.61
65460;DHT22;52058;49.822;6.754;2023-11-21T10:36:55;12.08;88.86
65460;DHT22;52058;49.822;6.754;2023-11-21T10:39:24;12.07;87.82
65460;DHT22;52058;49.822;6.754;2023-11-21T10:41:55;12.08;87.87
65460;DHT22;52058;49.822;6.754;2023-11-21T10:44:21;12.17;87.86
65460;DHT22;52058;49.822;6.754;2023-11-21T10:46:50;12.13;86.54
65460;DHT22;52058;49.822;6.754;2023-11-21T10:49:17;12.29;87.46
65460;DHT22;52058;49.822;6.754;2023-11-21T10:51:44;12.39;87.13
65460;DHT22;52058;49.822;6.754;2023-11-21T10:54:11;12.39;86.50
65460;DHT22;52058;49.822;6.754;2023-11-21T10:56:39;12.49;85.76
65460;DHT22;52058;49.822;6.754;2023-11-21T10:59:10;12.55;85.88
65460;DHT22;52058;49.822;6.754;2023-11-21T11:01:40;12.55;86.70
65460;DHT22;52058;49.822;6.754;2023-11-21T11:04:08;12.56;85.68
65460;DHT22;52058;49.822;6.754;2023-11-21T11:06:41;12.52;84.77
65460;DHT22;52058;49.822;6.754;2023-11-21T11:09:08;12.53;85.97
65460;DHT22;52058;49.822;6.754;2023-11-21T11:11:38;12.35;85.88
65460;DHT22;52058;49.822;6.754;2023-11-21T11:14:07;12.29;85.78
65460;DHT22;52058;49.822;6.754;2023-11-21T11:16:36;12.25;86.38
65460;DHT22;52058;49.822;6.754;2023-11-21T11:19:04;12.07;86.74
65460;DHT22;52058;49.822;6.754;2023-11-21T11:21:42;12.10;85.96
65460;DHT22;52058;49.822;6.754;2023-11-21T11:24:33;12.14;85.61
65460;DHT22;52058;49.822;6.754;2023-11-21T11:27:08;12.21;86.45
65460;DHT22;52058;49.822;6.754;2023-11-21T11:29:43;12.17;86.09
65460;DHT22;52058;49.822;6.754;2023-11-21T11:32:27;12.39;86.06
65460;DHT22;52058;49.822;6.754;2023-11-21T11:35:00;12.63;84.91
65460;DHT22;52058;49.822;6.754;2023-11-21T11:37:28;12.87;84.68
65460;DHT22;52058;49.822;6.754;2023-11-21T11:39:54;13.07;82.42
65460;DHT22;52058;49.822;6.754;2023-11-21T11:42:22;13.04;82.51
65460;DHT22;52058;49.822;6.754;2023-11-21T11:44:50;13.11;82.82
65460;DHT22;52058;49.822;6.754;2023-11-21T11:47:22;13.27;83.02
65460;DHT22;52058;49.822;6.754;2023-11-21T11:50:06;13.18;82.48
65460;DHT22;52058;49.822;6.754;2023-11-21T11:52:38;13.10;82.50
65460;DHT22;52058;49.822;6.754;2023-11-21T11:55:06;13.17;82.49
65460;DHT22;52058;49.822;6.754;2023-11-21T11:57:35;13.15;82.59
65460;DHT22;52058;49.822;6.754;2023-11-21T12:00:15;13.00;82.01
65460;DHT22;52058;49.822;6.754;2023-11-21T12:02:52;12.96;83.42
65460;DHT22;52058;49.822;6.754;2023-11-21T12:05:20;12.94;82.57
65460;DHT22;52058;49.822;6.754;2023-11-21T12:07:50;12.90;82.61
65460;DHT22;52058;49.822;6.754;2023-11-21T12:10:19;12.80;83.34
65460;DHT22;52058;49.822;6.754;2023-11-21T12:12:47;12.72;83.32
65460;DHT22;52058;49.822;6.754;2023-11-21T12:15:14;12.57;84.32
65460;DHT22;52058;49.822;6.754;2023-11-21T12:17:41;12.56;83.66
65460;DHT22;52058;49.822;6.754;2023-11-21T12:20:11;12.45;83.80
65460;DHT22;52058;49.822;6.754;2023-11-21T12:22:43;12.35;84.50
65460;DHT22;52058;49.822;6.754;2023-11-21T12:25:10;12.15;84.48
65460;DHT22;52058;49.822;6.754;2023-11-21T12:27:44;12.18;85.90
65460;DHT22;52058;49.822;6.754;2023-11-21T12:30:12;12.34;84.45
65460;DHT22;52058;49.822;6.754;2023-11-21T12:32:41;12.45;83.16
65460;DHT22;52058;49.822;6.754;2023-11-21T12:35:10;12.63;82.66
65460;DHT22;52058;49.822;6.754;2023-11-21T12:37:37;12.72;82.40
65460;DHT22;52058;49.822;6.754;2023-11-21T12:40:05;12.96;82.59
65460;DHT22;52058;49.822;6.754;2023-11-21T12:42:33;13.02;83.87
65460;DHT22;52058;49.822;6.754;2023-11-21T12:45:12;13.11;83.28
65460;DHT22;52058;49.822;6.754;2023-11-21T12:47:46;13.27;83.17
65460;DHT22;52058;49.822;6.754;2023-11-21T12:50:14;13.24;81.04
65460;DHT22;52058;49.822;6.754;2023-11-21T12:52:44;13.41;80.92
65460;DHT22;52058;49.822;6.754;2023-11-21T12:55:16;13.51;81.71
65460;DHT22;52058;49.822;6.754;2023-11-21T12:57:44;13.52;82.06
65460;DHT22;52058;49.822;6.754;2023-11-21T13:00:12;13.61;82.04
65460;DHT22;52058;49.822;6.754;2023-11-21T13:02:52;13.59;82.80
65460;DHT22;52058;49.822;6.754;2023-11-21T13:05:26;13.52;81.43
65460;DHT22;52058;49.822;6.754;2023-11-21T13:07:53;13.57;81.36
65460;DHT22;52058;49.822;6.754;2023-11-21T13:10:23;13.50;82.19
65460;DHT22;52058;49.822;6.754;2023-11-21T13:12:51;13.50;82.31
65460;DHT22;52058;49.822;6.754;2023-11-21T13:15:19;13.57;80.90
65460;DHT22;52058;49.822;6.754;2023-11-21T13:17:45;13.62;80.74
65460;DHT22;52058;49.822;6.754;2023-11-21T13:20:13;13.66;80.83
65460;DHT22;52058;49.822;6.754;2023-11-21T13:22:47;13.69;81.18
65460;DHT22;52058;49.822;6.754;2023-11-21T13:25:14;13.65;79.24
65460;DHT22;52058;49.822;6.754;2023-11-21T13:27:43;13.71;81.05
65460;DHT22;52058;49.822;6.754;2023-11-21T13:30:12;13.69;80.24
65460;DHT22;52058;49.822;6.754;2023-11-21T13:32:40;13.59;78.96
65460;DHT22;52058;49.822;6.754;2023-11-21T13:35:07;13.55;78.69
65460;DHT22;52058;49.822;6.754;2023-11-21T13:37:40;13.38;78.02
65460;DHT22;52058;49.822;6.754;2023-11-21T13:40:09;13.34;78.08
65460;DHT22;52058;49.822;6.754;2023-11-21T13:42:40;13.34;78.60
65460;DHT22;52058;49.822;6.754;2023-11-21T13:45:07;13.35;78.79
65460;DHT22;52058;49.822;6.754;2023-11-21T13:47:34;13.32;78.33
65460;DHT22;52058;49.822;6.754;2023-11-21T13:50:04;13.27;78.02
65460;DHT22;52058;49.822;6.754;2023-11-21T13:52:33;13.30;78.12
65460;DHT22;52058;49.822;6.754;2023-11-21T13:55:01;13.24;78.28
65460;DHT22;52058;49.822;6.754;2023-11-21T13:57:33;13.24;78.55
65460;DHT22;52058;49.822;6.754;2023-11-21T13:59:59;13.28;79.04
65460;DHT22;52058;49.822;6.754;2023-11-21T14:02:26;13.23;79.85
65460;DHT22;52058;49.822;6.754;2023-11-21T14:04:57;13.20;80.26
65460;DHT22;52058;49.822;6.754;2023-11-21T14:07:26;13.11;79.38
65460;DHT22;52058;49.822;6.754;2023-11-21T14:09:58;13.03;79.31
65460;DHT22;52058;49.822;6.754;2023-11-21T14:12:25;12.96;79.33
65460;DHT22;52058;49.822;6.754;2023-11-21T14:14:53;12.79;79.25
65460;DHT22;52058;49.822;6.754;2023-11-21T14:17:20;12.73;78.99
65460;DHT22;52058;49.822;6.754;2023-11-21T14:19:47;12.67;80.53
65460;DHT22;52058;49.822;6.754;2023-11-21T14:22:15;12.65;81.26
65460;DHT22;52058;49.822;6.754;2023-11-21T14:24:42;12.57;81.74
65460;DHT22;52058;49.822;6.754;2023-11-21T14:27:12;12.44;80.98
65460;DHT22;52058;49.822;6.754;2023-11-21T14:29:40;12.42;82.18
65460;DHT22;52058;49.822;6.754;2023-11-21T14:32:11;12.32;81.59
65460;DHT22;52058;49.822;6.754;2023-11-21T14:34:38;12.28;82.21
65460;DHT22;52058;49.822;6.754;2023-11-21T14:37:06;12.25;83.45
65460;DHT22;52058;49.822;6.754;2023-11-21T14:39:32;12.15;83.71
65460;DHT22;52058;49.822;6.754;2023-11-21T14:42:03;12.11;83.51
65460;DHT22;52058;49.822;6.754;2023-11-21T14:44:33;12.04;83.31
65460;DHT22;52058;49.822;6.754;2023-11-21T14:47:03;11.97;84.16
65460;DHT22;52058;49.822;6.754;2023-11-21T14:49:36;11.87;84.68
65460;DHT22;52058;49.822;6.754;2023-11-21T14:52:17;11.74;85.15
65460;DHT22;52058;49.822;6.754;2023-11-21T14:54:57;11.67;85.45
65460;DHT22;52058;49.822;6.754;2023-11-21T14:57:44;11.62;86.03
65460;DHT22;52058;49.822;6.754;2023-11-21T15:00:15;11.53;87.68
65460;DHT22;52058;49.822;6.754;2023-11-21T15:03:03;11.46;87.92
65460;DHT22;52058;49.822;6.754;2023-11-21T15:05:30;11.37;88.12
65460;DHT22;52058;49.822;6.754;2023-11-21T15:07:59;11.30;88.87
65460;DHT22;52058;49.822;6.754;2023-11-21T15:10:38;11.25;89.56
65460;DHT22;52058;49.822;6.754;2023-11-21T15:13:11;11.22;89.80
65460;DHT22;52058;49.822;6.754;2023-11-21T15:15:37;11.16;90.39
65460;DHT22;52058;49.822;6.754;2023-11-21T15:18:05;11.14;90.05
65460;DHT22;52058;49.822;6.754;2023-11-21T15:20:33;11.12;90.90
65460;DHT22;52058;49.822;6.754;2023-11-21T15:22:59;11.05;90.74
65460;DHT22;52058;49.822;6.754;2023-11-21T15:25:28;11.05;90.05
65460;DHT22;52058;49.822;6.754;2023-11-21T15:27:54;11.02;90.28
65460;DHT22;52058;49.822;6.754;2023-11-21T15:30:21;11.02;89.65
65460;DHT22;52058;49.822;6.754;2023-11-21T15:32:50;11.02;89.65
65460;DHT22;52058;49.822;6.754;2023-11-21T15:35:18;11.01;89.52
65460;DHT22;52058;49.822;6.754;2023-11-21T15:37:46;11.01;89.61
65460;DHT22;52058;49.822;6.754;2023-11-21T15:40:13;10.98;90.22
65460;DHT22;52058;49.822;6.754;2023-11-21T15:42:41;10.97;91.14